Time;durP1;ratioP1;P1;durP2;ratioP2;P2;SDS_P1;SDS_P2;PMS_P1;PMS_P2;Temp;Humidity;BMP_temperature;BMP_pressure;BME280_temperature;BME280_humidity;BME280_pressure;Samples;Min_cycle;Max_cycle;Signal;HPM_P1;HPM_P2
2023/07/02 00:01:11;;;;;;;7.37;3.33;;;17.80;48.50;;;;;;5000961;28;46592;-80
2023/07/02 00:03:38;;;;;;;5.63;3.43;;;17.70;48.80;;;;;;5001359;28;46923;-80
2023/07/02 00:06:04;;;;;;;6.90;4.00;;;17.70;49.00;;;;;;5000595;28;46361;-84
2023/07/02 00:08:29;;;;;;;7.23;3.83;;;17.70;49.30;;;;;;4984439;28;47290;-84
2023/07/02 00:10:55;;;;;;;5.33;3.57;;;17.70;49.20;;;;;;5000843;28;46478;-80
2023/07/02 00:13:20;;;;;;;5.80;3.20;;;17.80;49.30;;;;;;4981946;28;46425;-82
2023/07/02 00:15:46;;;;;;;7.03;3.93;;;17.80;49.40;;;;;;5000516;28;46819;-83
2023/07/02 00:18:16;;;;;;;5.60;3.47;;;17.70;49.50;;;;;;5001276;28;46525;-82
2023/07/02 00:20:42;;;;;;;5.67;3.50;;;17.70;49.90;;;;;;5000159;28;46404;-83
2023/07/02 00:23:10;;;;;;;9.63;3.60;;;17.80;50.00;;;;;;5001129;28;46443;-83
2023/07/02 00:25:36;;;;;;;6.07;3.77;;;17.70;50.00;;;;;;5001163;28;46675;-83
2023/07/02 00:28:02;;;;;;;4.40;2.77;;;17.70;50.10;;;;;;5000781;28;46444;-79
2023/07/02 00:30:27;;;;;;;8.17;3.27;;;17.70;50.50;;;;;;5000378;28;46334;-84
2023/07/02 00:32:53;;;;;;;6.50;3.03;;;17.70;50.70;;;;;;4984525;28;46381;-81
2023/07/02 00:35:18;;;;;;;4.93;3.03;;;17.70;51.10;;;;;;5000881;28;46470;-85
2023/07/02 00:37:44;;;;;;;5.10;3.20;;;17.60;51.30;;;;;;4982518;28;46421;-83
2023/07/02 00:40:10;;;;;;;5.30;3.43;;;17.60;51.50;;;;;;4997102;28;46491;-83
2023/07/02 00:42:35;;;;;;;5.50;3.50;;;17.60;51.60;;;;;;4984529;28;46448;-81
2023/07/02 00:45:04;;;;;;;5.00;3.20;;;17.60;51.90;;;;;;4983401;28;48521;-83
2023/07/02 00:47:32;;;;;;;5.90;3.37;;;17.60;51.90;;;;;;4999694;28;46460;-82
2023/07/02 00:49:58;;;;;;;9.70;3.00;;;17.60;51.90;;;;;;4997700;28;46608;-83
2023/07/02 00:52:25;;;;;;;5.80;2.80;;;17.60;52.40;;;;;;4984095;28;46621;-83
2023/07/02 00:54:51;;;;;;;6.03;2.80;;;17.50;52.70;;;;;;5005430;28;46620;-84
2023/07/02 00:57:17;;;;;;;6.33;3.20;;;17.50;53.20;;;;;;5003128;28;46520;-80
2023/07/02 00:59:43;;;;;;;5.40;2.77;;;17.50;53.60;;;;;;5002710;28;46856;-86
2023/07/02 01:02:08;;;;;;;7.03;2.53;;;17.50;53.90;;;;;;5006918;28;46555;-83
2023/07/02 01:04:34;;;;;;;4.63;2.63;;;17.60;54.00;;;;;;4988243;28;48043;-83
2023/07/02 01:07:00;;;;;;;5.00;2.47;;;17.50;54.40;;;;;;4980068;28;46861;-80
2023/07/02 01:09:26;;;;;;;6.23;3.00;;;17.50;54.30;;;;;;5000979;28;46381;-83
2023/07/02 01:12:07;;;;;;;5.27;3.03;;;17.50;54.70;;;;;;4982590;28;46540;-82
2023/07/02 01:14:39;;;;;;;10.13;3.20;;;17.50;54.90;;;;;;4996256;28;46806;-83
2023/07/02 01:17:06;;;;;;;5.70;2.67;;;17.50;55.00;;;;;;5000033;28;46931;-83
2023/07/02 01:19:45;;;;;;;4.67;2.80;;;17.50;54.80;;;;;;4999691;28;46488;-81
2023/07/02 01:22:12;;;;;;;5.70;2.87;;;17.50;55.00;;;;;;4999489;28;46530;-83
2023/07/02 01:24:41;;;;;;;5.70;3.20;;;17.50;55.00;;;;;;4980363;28;49547;-83
2023/07/02 01:27:07;;;;;;;4.90;3.10;;;17.50;55.10;;;;;;5001399;28;46487;-84
2023/07/02 01:29:36;;;;;;;4.27;2.63;;;17.50;55.40;;;;;;4982501;28;46441;-81
2023/07/02 01:32:02;;;;;;;5.67;3.00;;;17.50;55.50;;;;;;4998288;28;46406;-83
2023/07/02 01:34:27;;;;;;;5.40;2.93;;;17.50;55.50;;;;;;5002192;28;46579;-82
2023/07/02 01:36:53;;;;;;;5.03;2.80;;;17.50;55.60;;;;;;4983703;28;46572;-85
2023/07/02 01:39:19;;;;;;;5.10;2.93;;;17.50;55.50;;;;;;4981488;28;47126;-83
2023/07/02 01:41:52;;;;;;;5.63;3.13;;;17.60;55.50;;;;;;4998302;28;46456;-82
2023/07/02 01:44:18;;;;;;;4.27;2.70;;;17.50;55.30;;;;;;5001511;28;46554;-82
2023/07/02 01:46:48;;;;;;;5.13;2.60;;;17.60;55.40;;;;;;4999155;28;46521;-83
2023/07/02 01:49:17;;;;;;;4.40;3.00;;;17.60;55.30;;;;;;4979863;28;46428;-82
2023/07/02 01:51:52;;;;;;;5.00;3.17;;;17.60;55.10;;;;;;5000743;28;46685;-84
2023/07/02 01:54:19;;;;;;;4.77;3.10;;;17.70;55.00;;;;;;4975789;28;49408;-85
2023/07/02 01:56:44;;;;;;;5.20;3.00;;;17.70;54.80;;;;;;4999273;28;46836;-85
2023/07/02 01:59:11;;;;;;;4.80;2.87;;;17.70;54.70;;;;;;4999241;28;46497;-83
2023/07/02 02:01:40;;;;;;;4.43;3.07;;;17.70;54.70;;;;;;5002146;28;46471;-85
2023/07/02 02:04:06;;;;;;;7.30;3.10;;;17.70;54.70;;;;;;5002047;28;46965;-85
2023/07/02 02:06:32;;;;;;;5.93;3.50;;;17.70;55.00;;;;;;4997736;28;46420;-86
2023/07/02 02:08:57;;;;;;;8.10;3.20;;;17.70;55.00;;;;;;5000509;28;47205;-82
2023/07/02 02:11:23;;;;;;;5.70;3.20;;;17.70;55.20;;;;;;5001218;28;46682;-85
2023/07/02 02:13:49;;;;;;;9.50;2.90;;;17.70;55.10;;;;;;5000427;28;46487;-82
2023/07/02 02:16:15;;;;;;;6.17;3.40;;;17.80;55.10;;;;;;5000710;28;46047;-82
2023/07/02 02:18:41;;;;;;;6.50;3.03;;;17.70;55.00;;;;;;4998615;28;46563;-82
2023/07/02 02:21:06;;;;;;;4.27;2.60;;;17.80;55.00;;;;;;5001723;28;46440;-83
2023/07/02 02:23:32;;;;;;;6.80;2.90;;;17.90;54.90;;;;;;5002199;28;46600;-83
2023/07/02 02:25:57;;;;;;;4.53;2.93;;;17.80;54.70;;;;;;4981581;28;47609;-82
2023/07/02 02:28:23;;;;;;;6.63;2.90;;;17.80;56.00;;;;;;5000168;28;46513;-82
2023/07/02 02:30:49;;;;;;;7.23;3.60;;;17.80;54.80;;;;;;5000151;28;46356;-83
2023/07/02 02:33:14;;;;;;;6.83;2.63;;;17.90;54.80;;;;;;4986320;28;48272;-86
2023/07/02 02:35:40;;;;;;;4.97;3.20;;;18.00;54.70;;;;;;4986140;28;46509;-81
2023/07/02 02:38:05;;;;;;;4.50;2.70;;;17.80;54.50;;;;;;5007439;28;46416;-86
2023/07/02 02:40:31;;;;;;;5.60;2.60;;;17.90;54.70;;;;;;4986749;28;46394;-81
2023/07/02 02:42:56;;;;;;;7.53;2.30;;;17.80;54.90;;;;;;5009097;28;46434;-82
2023/07/02 02:45:22;;;;;;;9.00;3.30;;;16.90;56.70;;;;;;5009097;28;46194;-84
2023/07/02 02:47:47;;;;;;;10.60;3.60;;;16.60;60.10;;;;;;5005576;28;45876;-82
2023/07/02 02:50:13;;;;;;;11.07;3.40;;;16.40;58.90;;;;;;4986165;28;46545;-84
2023/07/02 02:52:39;;;;;;;8.30;3.50;;;16.30;58.70;;;;;;5004519;28;47074;-80
2023/07/02 02:55:06;;;;;;;7.50;3.80;;;16.20;58.60;;;;;;4989691;28;46457;-83
2023/07/02 02:57:32;;;;;;;6.57;3.60;;;16.20;58.50;;;;;;5000841;28;46405;-80
2023/07/02 02:59:58;;;;;;;5.83;3.43;;;16.10;58.30;;;;;;5001477;28;46922;-82
2023/07/02 03:02:24;;;;;;;7.27;3.57;;;16.10;58.30;;;;;;5007573;28;46012;-82
2023/07/02 03:04:49;;;;;;;6.10;3.30;;;16.00;58.00;;;;;;5001565;28;46923;-81
2023/07/02 03:07:15;;;;;;;12.63;3.53;;;16.00;58.20;;;;;;4986129;28;46385;-83
2023/07/02 03:09:41;;;;;;;9.73;3.83;;;16.00;58.20;;;;;;4985207;28;46402;-81
2023/07/02 03:12:07;;;;;;;9.80;3.93;;;15.90;58.20;;;;;;5003435;28;47121;-81
2023/07/02 03:14:33;;;;;;;6.80;3.53;;;16.00;57.60;;;;;;5000085;28;46471;-81
2023/07/02 03:16:58;;;;;;;7.40;3.90;;;16.00;57.20;;;;;;5003285;28;46484;-81
2023/07/02 03:19:24;;;;;;;16.33;4.30;;;16.10;57.20;;;;;;5004413;28;46495;-82
2023/07/02 03:21:50;;;;;;;7.20;3.70;;;16.10;57.20;;;;;;5003413;28;47011;-82
2023/07/02 03:24:16;;;;;;;7.70;4.30;;;16.10;57.00;;;;;;5000863;28;46510;-81
2023/07/02 03:26:42;;;;;;;7.77;4.00;;;16.20;56.60;;;;;;5004514;28;46474;-81
2023/07/02 03:29:08;;;;;;;8.37;3.90;;;16.20;56.30;;;;;;5003754;28;46809;-81
2023/07/02 03:31:33;;;;;;;8.37;4.20;;;16.20;56.10;;;;;;5004055;28;47500;-81
2023/07/02 03:34:03;;;;;;;8.33;3.10;;;16.20;56.10;;;;;;5001260;28;46792;-81
2023/07/02 03:36:29;;;;;;;5.97;3.33;;;16.20;56.20;;;;;;5001934;28;46517;-82
2023/07/02 03:38:54;;;;;;;12.83;4.00;;;16.20;56.20;;;;;;5002402;28;46352;-83
2023/07/02 03:41:20;;;;;;;7.40;3.70;;;16.20;56.20;;;;;;5003274;28;46487;-82
2023/07/02 03:43:47;;;;;;;20.83;4.47;;;16.30;56.10;;;;;;5004121;28;46868;-84
2023/07/02 03:46:12;;;;;;;6.60;3.47;;;16.30;56.00;;;;;;5005323;28;46566;-81
2023/07/02 03:48:38;;;;;;;11.80;3.67;;;16.30;55.80;;;;;;4987480;28;46556;-82
2023/07/02 03:51:03;;;;;;;12.03;4.47;;;16.30;56.00;;;;;;4986173;28;48020;-82
2023/07/02 03:53:29;;;;;;;18.13;4.07;;;16.30;56.10;;;;;;5007280;28;46346;-82
2023/07/02 03:55:54;;;;;;;17.77;4.60;;;16.30;55.80;;;;;;5005752;28;46358;-86
2023/07/02 03:58:20;;;;;;;5.73;3.07;;;16.20;55.80;;;;;;5004996;28;45900;-83
2023/07/02 04:00:49;;;;;;;6.17;3.73;;;16.30;55.90;;;;;;4986685;28;47893;-82
2023/07/02 04:03:15;;;;;;;8.80;3.80;;;16.30;55.90;;;;;;5007059;28;46639;-83
2023/07/02 04:05:41;;;;;;;5.93;3.60;;;16.30;56.00;;;;;;5005992;28;46367;-81
2023/07/02 04:08:07;;;;;;;12.10;4.20;;;16.30;56.90;;;;;;5002413;28;46600;-83
2023/07/02 04:10:33;;;;;;;5.63;4.00;;;16.30;55.90;;;;;;5007428;28;46412;-80
2023/07/02 04:12:58;;;;;;;9.27;4.23;;;16.30;56.00;;;;;;5007229;28;46442;-81
2023/07/02 04:15:25;;;;;;;12.90;4.20;;;16.30;56.20;;;;;;5003424;28;45850;-84
2023/07/02 04:17:51;;;;;;;7.53;4.00;;;16.30;56.40;;;;;;4988034;28;46631;-83
2023/07/02 04:20:18;;;;;;;5.90;4.27;;;16.20;56.50;;;;;;5008468;28;46147;-82
2023/07/02 04:22:44;;;;;;;9.27;3.90;;;16.20;56.50;;;;;;5007735;28;45903;-83
2023/07/02 04:25:11;;;;;;;9.20;4.80;;;16.20;56.40;;;;;;5005832;28;46455;-85
2023/07/02 04:27:36;;;;;;;8.13;4.27;;;16.30;56.30;;;;;;5006620;28;45918;-82
2023/07/02 04:30:03;;;;;;;7.90;4.60;;;16.30;56.30;;;;;;5002898;28;46507;-82
2023/07/02 04:32:28;;;;;;;10.20;4.33;;;16.30;56.00;;;;;;5002464;28;45864;-82
2023/07/02 04:34:54;;;;;;;8.60;3.97;;;16.40;55.90;;;;;;4997771;28;46520;-79
2023/07/02 04:37:21;;;;;;;8.33;3.90;;;16.40;55.80;;;;;;5002229;28;46601;-82
2023/07/02 04:39:47;;;;;;;7.50;3.90;;;16.50;55.60;;;;;;5001509;28;46422;-82
2023/07/02 04:42:13;;;;;;;9.40;4.17;;;16.50;55.50;;;;;;5002761;28;46558;-83
2023/07/02 04:44:39;;;;;;;7.10;4.37;;;16.60;55.40;;;;;;4979231;28;46507;-82
2023/07/02 04:47:04;;;;;;;13.50;4.03;;;16.60;55.20;;;;;;5001692;28;46486;-82
2023/07/02 04:49:30;;;;;;;6.43;3.90;;;16.70;55.10;;;;;;5000322;28;46989;-82
2023/07/02 04:51:55;;;;;;;8.93;4.00;;;16.70;55.40;;;;;;4999998;28;46427;-82
2023/07/02 04:54:21;;;;;;;11.00;4.27;;;16.70;55.30;;;;;;4998482;28;46475;-81
2023/07/02 04:56:48;;;;;;;7.37;4.40;;;16.70;55.20;;;;;;5001088;28;46392;-81
2023/07/02 04:59:14;;;;;;;5.67;3.50;;;16.80;55.00;;;;;;4997376;28;46749;-84
2023/07/02 05:01:40;;;;;;;5.17;3.40;;;16.80;54.90;;;;;;4999007;28;46482;-80
2023/07/02 05:04:06;;;;;;;7.53;4.60;;;16.90;55.00;;;;;;4999166;28;46459;-82
2023/07/02 05:06:31;;;;;;;8.03;3.90;;;16.90;55.00;;;;;;5000911;28;45884;-81
2023/07/02 05:08:57;;;;;;;8.60;4.20;;;17.00;54.90;;;;;;4998680;28;47226;-82
2023/07/02 05:11:22;;;;;;;9.93;3.70;;;17.00;54.80;;;;;;4999056;28;46459;-82
2023/07/02 05:13:48;;;;;;;10.20;4.37;;;17.10;54.50;;;;;;4999989;28;46412;-81
2023/07/02 05:16:14;;;;;;;9.10;4.50;;;17.20;54.30;;;;;;5000873;28;46550;-83
2023/07/02 05:18:39;;;;;;;9.40;4.63;;;17.20;54.30;;;;;;4981708;28;48594;-82
2023/07/02 05:21:05;;;;;;;6.63;3.90;;;17.20;54.10;;;;;;4996955;28;46536;-82
2023/07/02 05:23:30;;;;;;;9.97;4.33;;;17.20;54.30;;;;;;4998027;28;47033;-82
2023/07/02 05:25:56;;;;;;;11.10;4.70;;;17.20;54.30;;;;;;4999852;28;46388;-82
2023/07/02 05:28:21;;;;;;;6.00;3.73;;;17.10;54.20;;;;;;4980815;28;48521;-82
2023/07/02 05:30:47;;;;;;;11.73;4.50;;;17.10;54.20;;;;;;4999348;28;46444;-82
2023/07/02 05:33:13;;;;;;;6.17;4.20;;;17.20;54.10;;;;;;5000685;28;46720;-82
2023/07/02 05:35:39;;;;;;;7.30;4.13;;;17.20;54.10;;;;;;5001293;28;46245;-82
2023/07/02 05:38:04;;;;;;;9.00;4.10;;;17.20;53.90;;;;;;4998586;28;47378;-82
2023/07/02 05:40:30;;;;;;;8.97;4.80;;;17.20;54.00;;;;;;5001249;28;45844;-82
2023/07/02 05:42:56;;;;;;;9.03;4.67;;;17.20;53.90;;;;;;4998914;28;46432;-82
2023/07/02 05:45:23;;;;;;;9.03;4.40;;;17.20;53.80;;;;;;5002462;28;46503;-82
2023/07/02 05:47:48;;;;;;;14.40;4.40;;;17.20;55.10;;;;;;5000040;28;46708;-81
2023/07/02 05:50:14;;;;;;;8.40;4.13;;;17.20;54.00;;;;;;4986719;28;46540;-84
2023/07/02 05:52:40;;;;;;;8.27;4.00;;;17.20;54.00;;;;;;5001681;28;46440;-83
2023/07/02 05:55:10;;;;;;;15.13;4.63;;;17.20;54.00;;;;;;5002392;28;46497;-82
2023/07/02 05:57:36;;;;;;;7.10;4.43;;;17.20;53.80;;;;;;5000051;28;46091;-78
2023/07/02 06:00:04;;;;;;;7.60;4.70;;;17.20;53.80;;;;;;4995637;28;46241;-82
2023/07/02 06:02:29;;;;;;;7.47;3.90;;;17.20;53.80;;;;;;4998650;28;46470;-85
2023/07/02 06:04:55;;;;;;;12.17;4.37;;;17.20;53.80;;;;;;5002616;28;46467;-86
2023/07/02 06:07:20;;;;;;;9.03;3.93;;;17.20;54.20;;;;;;5004204;28;46944;-83
2023/07/02 06:09:46;;;;;;;7.73;3.73;;;16.90;55.00;;;;;;5004765;28;46460;-79
2023/07/02 06:12:11;;;;;;;8.50;3.70;;;16.60;56.10;;;;;;5004179;28;46459;-83
2023/07/02 06:14:37;;;;;;;8.23;3.73;;;16.40;57.00;;;;;;4986219;28;46481;-82
2023/07/02 06:17:05;;;;;;;7.90;4.07;;;16.40;57.30;;;;;;5004626;28;46055;-82
2023/07/02 06:19:31;;;;;;;8.07;4.00;;;16.50;56.50;;;;;;4972756;28;46452;-82
2023/07/02 06:21:56;;;;;;;6.70;3.70;;;16.60;56.00;;;;;;5004771;28;46493;-83
2023/07/02 06:24:22;;;;;;;15.30;4.60;;;16.50;55.90;;;;;;5002033;28;46390;-81
2023/07/02 06:26:47;;;;;;;7.83;4.00;;;16.60;55.50;;;;;;4985443;28;49466;-82
2023/07/02 06:29:13;;;;;;;8.20;4.80;;;16.60;55.50;;;;;;4982118;28;46495;-82
2023/07/02 06:31:38;;;;;;;7.87;4.13;;;16.60;55.50;;;;;;5003713;28;45868;-85
2023/07/02 06:34:04;;;;;;;9.37;4.20;;;16.60;55.90;;;;;;5004767;28;46952;-85
2023/07/02 06:36:29;;;;;;;7.43;4.40;;;16.50;56.20;;;;;;4998781;28;49271;-81
2023/07/02 06:38:55;;;;;;;9.60;5.10;;;16.80;55.70;;;;;;4984179;28;46397;-83
2023/07/02 06:41:21;;;;;;;12.57;4.83;;;17.00;54.90;;;;;;4986750;28;46594;-84
2023/07/02 06:43:46;;;;;;;10.93;4.60;;;17.10;54.90;;;;;;5004344;28;46527;-80
2023/07/02 06:46:12;;;;;;;7.13;4.20;;;16.80;55.50;;;;;;5002537;28;47131;-80
2023/07/02 06:48:37;;;;;;;9.63;4.80;;;16.60;56.30;;;;;;4987414;28;46627;-81
2023/07/02 06:51:03;;;;;;;8.30;3.90;;;16.60;56.40;;;;;;5006670;28;46501;-84
2023/07/02 06:53:28;;;;;;;6.53;4.50;;;16.70;56.20;;;;;;5005866;28;46627;-83
2023/07/02 06:55:54;;;;;;;9.37;4.27;;;16.60;56.60;;;;;;5000690;28;47015;-83
2023/07/02 06:58:19;;;;;;;6.93;4.00;;;16.40;57.50;;;;;;5008506;28;46353;-83
2023/07/02 07:00:46;;;;;;;7.40;4.33;;;16.40;57.50;;;;;;5005126;28;47003;-85
2023/07/02 07:03:11;;;;;;;7.50;4.20;;;16.60;57.70;;;;;;4983652;28;46422;-83
2023/07/02 07:05:37;;;;;;;7.40;4.30;;;16.50;57.60;;;;;;5005188;28;46188;-79
2023/07/02 07:08:02;;;;;;;8.10;4.33;;;16.60;57.70;;;;;;5003954;28;46503;-83
2023/07/02 07:10:33;;;;;;;5.90;3.90;;;16.70;56.70;;;;;;5004995;28;46458;-84
2023/07/02 07:12:59;;;;;;;8.93;3.10;;;16.90;55.90;;;;;;5000817;28;46557;-84
2023/07/02 07:15:25;;;;;;;6.57;2.97;;;17.20;55.30;;;;;;5004350;28;48377;-84
2023/07/02 07:17:50;;;;;;;6.80;3.37;;;17.30;55.10;;;;;;4997369;28;46605;-83
2023/07/02 07:20:16;;;;;;;10.23;3.00;;;17.10;56.80;;;;;;5004449;28;46363;-83
2023/07/02 07:22:41;;;;;;;7.40;3.67;;;17.00;55.90;;;;;;5004955;28;46425;-82
2023/07/02 07:25:08;;;;;;;11.27;3.50;;;17.10;56.00;;;;;;5004102;28;46429;-82
2023/07/02 07:27:33;;;;;;;5.87;3.10;;;17.10;55.60;;;;;;5001409;28;46488;-84
2023/07/02 07:29:59;;;;;;;7.40;4.10;;;17.20;55.70;;;;;;5006258;28;46385;-81
2023/07/02 07:32:24;;;;;;;4.50;2.80;;;17.20;55.30;;;;;;5004259;28;46423;-84
2023/07/02 07:34:50;;;;;;;8.63;3.40;;;17.30;55.30;;;;;;4986737;28;48234;-84
2023/07/02 07:37:16;;;;;;;5.57;3.30;;;17.40;54.90;;;;;;5003458;28;46454;-84
2023/07/02 07:39:41;;;;;;;6.50;3.50;;;17.70;54.40;;;;;;5006021;28;46950;-85
2023/07/02 07:42:07;;;;;;;7.17;3.53;;;17.90;54.00;;;;;;4983975;28;46552;-82
2023/07/02 07:44:32;;;;;;;4.20;2.50;;;18.10;53.10;;;;;;5005565;28;47242;-82
2023/07/02 07:46:58;;;;;;;5.63;3.00;;;18.40;52.40;;;;;;5004917;28;46427;-83
2023/07/02 07:49:24;;;;;;;6.13;2.53;;;18.60;51.50;;;;;;5005596;28;46460;-81
2023/07/02 07:51:49;;;;;;;5.10;2.67;;;18.80;50.70;;;;;;4987850;28;47233;-83
2023/07/02 07:54:15;;;;;;;9.30;2.80;;;18.80;50.50;;;;;;5004880;28;46519;-81
2023/07/02 07:56:40;;;;;;;6.20;3.17;;;19.00;49.80;;;;;;5002796;28;46313;-80
2023/07/02 07:59:06;;;;;;;5.47;2.87;;;19.00;49.40;;;;;;5003567;28;46925;-84
2023/07/02 08:01:31;;;;;;;5.60;2.90;;;18.90;49.30;;;;;;5006410;28;46503;-83
2023/07/02 08:03:57;;;;;;;8.37;3.47;;;18.80;49.50;;;;;;4996920;28;46389;-80
2023/07/02 08:06:22;;;;;;;10.47;3.63;;;18.90;49.40;;;;;;4999697;28;46767;-87
2023/07/02 08:08:48;;;;;;;5.67;2.80;;;19.00;48.60;;;;;;5000575;28;46400;-85
2023/07/02 08:11:13;;;;;;;8.00;3.07;;;19.00;48.60;;;;;;4995980;28;46703;-83
2023/07/02 08:13:39;;;;;;;4.90;3.00;;;19.00;48.60;;;;;;4997142;28;46605;-81
2023/07/02 08:16:05;;;;;;;9.60;3.37;;;19.00;49.00;;;;;;5002066;28;46539;-80
2023/07/02 08:18:30;;;;;;;5.53;2.80;;;18.70;49.30;;;;;;4999519;28;46816;-83
2023/07/02 08:20:56;;;;;;;7.63;3.23;;;18.60;49.60;;;;;;4998134;28;46487;-84
2023/07/02 08:23:22;;;;;;;6.40;2.70;;;18.70;49.30;;;;;;5002789;28;46415;-83
2023/07/02 08:25:47;;;;;;;8.93;2.60;;;18.90;48.70;;;;;;5000538;28;46596;-81
2023/07/02 08:28:13;;;;;;;10.90;3.43;;;19.00;47.40;;;;;;4993909;28;46527;-83
2023/07/02 08:30:38;;;;;;;4.57;2.60;;;19.20;46.90;;;;;;5001708;28;48097;-84
2023/07/02 08:33:04;;;;;;;6.43;2.60;;;19.30;47.00;;;;;;5004173;28;46176;-84
2023/07/02 08:35:29;;;;;;;5.87;3.17;;;19.50;47.20;;;;;;4987946;28;46752;-83
2023/07/02 08:37:56;;;;;;;13.03;3.17;;;19.50;46.10;;;;;;5003125;28;46683;-81
2023/07/02 08:40:22;;;;;;;4.67;2.50;;;19.50;45.60;;;;;;5002236;28;46575;-84
2023/07/02 08:42:48;;;;;;;5.43;2.97;;;19.60;45.40;;;;;;5002753;28;47015;-83
2023/07/02 08:45:15;;;;;;;5.47;3.17;;;19.80;45.00;;;;;;4985877;28;46923;-85
2023/07/02 08:47:41;;;;;;;7.80;2.63;;;19.60;44.80;;;;;;4981621;28;46861;-84
2023/07/02 08:50:07;;;;;;;5.87;3.03;;;19.50;45.50;;;;;;4984625;28;46492;-83
2023/07/02 08:52:33;;;;;;;7.80;2.80;;;19.30;46.00;;;;;;5002226;28;46666;-81
2023/07/02 08:54:58;;;;;;;5.10;2.83;;;19.10;46.50;;;;;;4985551;28;46484;-84
2023/07/02 08:57:24;;;;;;;5.17;2.70;;;19.10;46.80;;;;;;4982688;28;46521;-81
2023/07/02 08:59:51;;;;;;;4.10;2.50;;;19.00;46.70;;;;;;5000465;28;46427;-81
2023/07/02 09:02:17;;;;;;;5.03;2.80;;;19.20;46.30;;;;;;5002746;28;47027;-84
2023/07/02 09:04:42;;;;;;;5.27;3.20;;;19.40;45.50;;;;;;4983361;28;46654;-85
2023/07/02 09:07:11;;;;;;;4.10;2.50;;;19.60;44.80;;;;;;4999418;28;46418;-84
2023/07/02 09:09:48;;;;;;;6.40;2.63;;;19.70;44.30;;;;;;4993261;28;46580;-80
2023/07/02 09:12:27;;;;;;;8.87;2.87;;;19.80;44.10;;;;;;5002095;28;46794;-82
2023/07/02 09:14:57;;;;;;;5.07;2.90;;;19.80;43.70;;;;;;4999432;28;45859;-83
2023/07/02 09:17:30;;;;;;;4.97;2.80;;;19.80;43.50;;;;;;4993944;28;47030;-84
2023/07/02 09:20:00;;;;;;;6.17;3.20;;;19.90;43.30;;;;;;4996191;28;46500;-83
2023/07/02 09:22:26;;;;;;;5.97;3.07;;;19.80;43.30;;;;;;4983380;28;48200;-86
2023/07/02 09:24:59;;;;;;;5.97;3.17;;;19.80;43.30;;;;;;4999973;28;46534;-84
2023/07/02 09:27:41;;;;;;;5.70;3.23;;;19.70;43.40;;;;;;4996288;28;46524;-84
2023/07/02 09:30:08;;;;;;;5.07;3.00;;;19.60;43.50;;;;;;4998906;28;46421;-83
2023/07/02 09:32:34;;;;;;;6.07;3.30;;;19.60;43.50;;;;;;4997461;28;46407;-83
2023/07/02 09:35:00;;;;;;;5.77;3.07;;;19.60;43.90;;;;;;4995952;28;46412;-83
2023/07/02 09:37:26;;;;;;;7.27;3.77;;;19.60;44.10;;;;;;4978359;28;46886;-82
2023/07/02 09:39:54;;;;;;;8.03;3.30;;;19.70;44.00;;;;;;4999391;28;46450;-84
2023/07/02 09:42:21;;;;;;;6.43;3.60;;;19.80;43.80;;;;;;4990599;28;46579;-82
2023/07/02 09:44:47;;;;;;;6.57;3.43;;;19.90;43.40;;;;;;4991249;28;46543;-82
2023/07/02 09:47:14;;;;;;;5.00;3.33;;;20.10;42.90;;;;;;4998388;28;46017;-83
2023/07/02 09:49:44;;;;;;;6.93;3.90;;;20.40;42.20;;;;;;5002371;28;46408;-85
2023/07/02 09:52:11;;;;;;;7.67;3.60;;;20.70;41.70;;;;;;4980920;28;48218;-83
2023/07/02 09:54:37;;;;;;;8.97;3.10;;;20.90;40.80;;;;;;4969853;28;46838;-82
2023/07/02 09:57:04;;;;;;;6.80;4.00;;;21.20;39.50;;;;;;4997463;28;46452;-82
2023/07/02 09:59:30;;;;;;;5.97;3.90;;;21.40;38.70;;;;;;4995577;28;46661;-83
2023/07/02 10:01:56;;;;;;;8.70;4.00;;;21.30;38.80;;;;;;5000983;28;46642;-82
2023/07/02 10:04:25;;;;;;;8.90;4.23;;;21.30;39.10;;;;;;5002576;28;46416;-83
2023/07/02 10:06:55;;;;;;;8.00;4.77;;;21.50;39.40;;;;;;4997331;28;46578;-82
2023/07/02 10:09:54;;;;;;;8.77;4.37;;;21.70;38.80;;;;;;5001887;28;46240;-83
2023/07/02 10:12:26;;;;;;;7.30;4.33;;;22.20;37.70;;;;;;4942154;28;48296;-84
2023/07/02 10:14:54;;;;;;;11.67;4.90;;;22.90;36.60;;;;;;5000310;28;46536;-83
2023/07/02 10:17:38;;;;;;;7.90;4.53;;;23.30;34.70;;;;;;5002014;28;46239;-84
2023/07/02 10:20:10;;;;;;;10.17;5.07;;;23.30;33.90;;;;;;4988514;28;46421;-85
2023/07/02 10:22:47;;;;;;;8.87;5.00;;;23.10;34.50;;;;;;4976330;28;48223;-84
2023/07/02 10:25:23;;;;;;;10.43;5.80;;;22.90;34.80;;;;;;4980763;28;47169;-81
2023/07/02 10:27:49;;;;;;;11.13;5.10;;;22.50;36.30;;;;;;4995874;28;46592;-84
2023/07/02 10:30:14;;;;;;;9.93;5.40;;;22.30;36.10;;;;;;4997049;28;46504;-80
2023/07/02 10:32:40;;;;;;;9.07;5.30;;;22.30;36.10;;;;;;4981205;28;47976;-83
2023/07/02 10:35:16;;;;;;;11.93;5.47;;;22.40;36.30;;;;;;4977793;28;46783;-84
2023/07/02 10:37:42;;;;;;;11.40;6.03;;;22.30;36.10;;;;;;4973291;28;46449;-82
2023/07/02 10:40:09;;;;;;;12.93;5.33;;;22.30;36.10;;;;;;4971106;28;46234;-83
2023/07/02 10:42:48;;;;;;;10.30;6.33;;;22.10;36.00;;;;;;4984469;28;48349;-83
2023/07/02 10:45:15;;;;;;;9.50;5.50;;;22.00;36.00;;;;;;4999825;28;45874;-83
2023/07/02 10:47:42;;;;;;;9.77;6.17;;;21.90;35.80;;;;;;4982163;28;46945;-82
2023/07/02 10:50:15;;;;;;;10.70;6.20;;;21.80;35.70;;;;;;4999671;28;46362;-82
2023/07/02 10:52:41;;;;;;;10.43;5.63;;;21.70;35.60;;;;;;5002030;28;46731;-81
2023/07/02 10:55:07;;;;;;;10.20;6.03;;;21.40;36.60;;;;;;4984042;28;46509;-83
2023/07/02 10:57:33;;;;;;;21.23;6.87;;;21.20;37.30;;;;;;4985123;28;46439;-85
2023/07/02 11:00:07;;;;;;;10.47;6.93;;;21.30;37.10;;;;;;5002567;28;46175;-81
2023/07/02 11:02:37;;;;;;;14.77;7.90;;;21.40;36.60;;;;;;5004903;28;46524;-86
2023/07/02 11:05:06;;;;;;;14.30;7.90;;;21.60;35.80;;;;;;5004426;28;46745;-81
2023/07/02 11:07:35;;;;;;;12.70;7.90;;;21.60;35.50;;;;;;4986344;28;46401;-82
2023/07/02 11:10:00;;;;;;;13.57;7.50;;;21.70;35.60;;;;;;5002037;28;46570;-84
2023/07/02 11:12:30;;;;;;;16.23;7.40;;;21.50;35.50;;;;;;4988574;28;48034;-84
2023/07/02 11:15:06;;;;;;;15.83;7.90;;;21.50;35.40;;;;;;5006291;28;46546;-83
2023/07/02 11:17:31;;;;;;;17.40;8.37;;;21.50;35.40;;;;;;4982473;28;45863;-81
2023/07/02 11:19:57;;;;;;;15.67;8.27;;;21.60;35.50;;;;;;5004896;28;46707;-83
2023/07/02 11:22:32;;;;;;;14.50;8.10;;;21.70;35.60;;;;;;4989259;28;49977;-85
2023/07/02 11:25:15;;;;;;;13.40;8.20;;;21.70;35.60;;;;;;5004607;28;46644;-85
2023/07/02 11:27:41;;;;;;;16.40;9.97;;;21.80;35.50;;;;;;5004687;28;46562;-85
2023/07/02 11:30:07;;;;;;;17.07;9.80;;;21.90;35.10;;;;;;5003658;28;45894;-83
2023/07/02 11:32:51;;;;;;;17.57;9.90;;;21.90;35.20;;;;;;5008493;28;46418;-84
2023/07/02 11:35:17;;;;;;;15.43;9.40;;;22.00;35.50;;;;;;5005634;28;45899;-83
2023/07/02 11:37:43;;;;;;;18.63;9.67;;;22.20;35.20;;;;;;5003806;28;46596;-84
2023/07/02 11:40:09;;;;;;;18.37;10.37;;;22.50;34.50;;;;;;5003296;28;46761;-82
2023/07/02 11:42:35;;;;;;;19.03;10.60;;;22.60;33.80;;;;;;5003265;28;46529;-83
2023/07/02 11:45:01;;;;;;;20.00;10.43;;;22.70;34.10;;;;;;5000987;28;46465;-82
2023/07/02 11:47:27;;;;;;;20.37;11.00;;;22.70;34.70;;;;;;4985597;28;46534;-84
2023/07/02 11:49:54;;;;;;;20.23;11.17;;;22.80;34.60;;;;;;4987026;28;46931;-83
2023/07/02 11:52:20;;;;;;;21.03;10.90;;;22.60;34.60;;;;;;5001838;28;46496;-81
2023/07/02 11:54:46;;;;;;;19.33;10.90;;;22.80;34.40;;;;;;4981025;28;46248;-81
2023/07/02 11:57:12;;;;;;;20.90;10.87;;;23.00;33.90;;;;;;5005650;28;46472;-83
2023/07/02 11:59:38;;;;;;;21.60;11.87;;;23.10;33.30;;;;;;5004218;28;46480;-82
2023/07/02 12:02:03;;;;;;;26.07;13.17;;;23.30;32.80;;;;;;5005116;28;46418;-82
2023/07/02 12:04:29;;;;;;;25.07;13.10;;;23.50;32.30;;;;;;5002322;28;46925;-84
2023/07/02 12:06:55;;;;;;;29.30;13.20;;;23.60;32.10;;;;;;4999863;28;46520;-83
2023/07/02 12:09:20;;;;;;;21.57;12.00;;;23.90;31.50;;;;;;4974684;28;46451;-84
2023/07/02 12:11:46;;;;;;;24.10;12.37;;;23.80;30.10;;;;;;5002913;28;46474;-81
2023/07/02 12:14:12;;;;;;;29.30;13.17;;;23.90;29.80;;;;;;5002338;28;46856;-82
2023/07/02 12:16:37;;;;;;;24.13;13.77;;;24.30;28.90;;;;;;5001333;28;46472;-82
2023/07/02 12:19:03;;;;;;;28.60;15.10;;;24.50;27.10;;;;;;4983795;28;46614;-83
2023/07/02 12:21:28;;;;;;;26.53;13.77;;;24.60;25.70;;;;;;4993755;28;47184;-82
2023/07/02 12:23:54;;;;;;;25.83;13.93;;;24.70;24.90;;;;;;4983423;28;46755;-84
2023/07/02 12:26:20;;;;;;;27.67;14.83;;;24.80;24.10;;;;;;4997835;28;46868;-83
2023/07/02 12:28:45;;;;;;;24.63;13.47;;;25.10;23.60;;;;;;4998880;28;46450;-83
2023/07/02 12:31:12;;;;;;;30.70;14.83;;;25.20;22.40;;;;;;4995213;28;47113;-85
2023/07/02 12:33:38;;;;;;;27.83;15.50;;;25.20;20.30;;;;;;4998532;28;46463;-84
2023/07/02 12:36:04;;;;;;;28.07;15.40;;;25.30;19.90;;;;;;4999574;28;46411;-84
2023/07/02 12:38:29;;;;;;;26.57;14.70;;;25.40;19.10;;;;;;4995447;28;46581;-83
2023/07/02 12:40:55;;;;;;;27.13;15.27;;;25.50;18.20;;;;;;4974744;28;48339;-80